Lacamp, Louisiana
Current Conditions -  °F | °C
As of 1:54 AM on Saturday 25 Oct 2014 (Local Time) from KBKB Reporting Station
Haze Haze  
Wind Chill: 51°   Ceiling: Unl
Heat Index: 51°   Visibility: 4mi
Dew Point: 47°   Wind: 0mph
Humidity: 86%   Direction: NA
Pressure: 30.11"   Gusts: NA
Location:  31.16°N, 92.91°W
Report Text: KBKB 250654Z AUTO 00000KT 4SM BR CLR 11/08 A3011 RMK AO2 SLP225 T01060083
Loading
Personal Weather Stations






























Interactive Weather Map
Tropical Storm Tracking
New forecast layout! Learn more

10-Day Weather Forecast

Advertisements
Track Severe Weather on mobile